sensor_id;sensor_type;location;lat;lon;timestamp;pressure;altitude;pressure_sealevel;temperature;humidity
28428;BME280;15662;49.128;8.520;2023-08-12T00:01:20;100603.53;;;25.28;46.37
28428;BME280;15662;49.128;8.520;2023-08-12T00:03:49;100599.09;;;25.27;46.37
28428;BME280;15662;49.128;8.520;2023-08-12T00:06:16;100598.50;;;25.24;46.20
28428;BME280;15662;49.128;8.520;2023-08-12T00:08:44;100591.06;;;25.26;46.30
28428;BME280;15662;49.128;8.520;2023-08-12T00:11:11;100595.78;;;25.24;46.51
28428;BME280;15662;49.128;8.520;2023-08-12T00:13:39;100599.50;;;25.23;46.78
28428;BME280;15662;49.128;8.520;2023-08-12T00:16:07;100589.13;;;25.16;47.16
28428;BME280;15662;49.128;8.520;2023-08-12T00:18:34;100591.84;;;25.16;47.07
28428;BME280;15662;49.128;8.520;2023-08-12T00:21:07;100581.38;;;25.12;47.15
28428;BME280;15662;49.128;8.520;2023-08-12T00:23:40;100581.50;;;25.10;46.88
28428;BME280;15662;49.128;8.520;2023-08-12T00:26:08;100585.94;;;25.11;46.87
28428;BME280;15662;49.128;8.520;2023-08-12T00:28:36;100587.78;;;25.11;46.86
28428;BME280;15662;49.128;8.520;2023-08-12T00:31:04;100582.25;;;25.12;46.93
28428;BME280;15662;49.128;8.520;2023-08-12T00:33:33;100573.25;;;25.12;46.63
28428;BME280;15662;49.128;8.520;2023-08-12T00:36:00;100576.84;;;25.12;47.03
28428;BME280;15662;49.128;8.520;2023-08-12T00:38:28;100572.38;;;25.11;47.01
28428;BME280;15662;49.128;8.520;2023-08-12T00:40:56;100567.94;;;25.10;47.57
28428;BME280;15662;49.128;8.520;2023-08-12T00:43:25;100571.53;;;25.11;47.23
28428;BME280;15662;49.128;8.520;2023-08-12T00:45:53;100560.94;;;25.08;47.19
28428;BME280;15662;49.128;8.520;2023-08-12T00:48:21;100564.63;;;25.07;47.45
28428;BME280;15662;49.128;8.520;2023-08-12T00:50:49;100569.66;;;25.11;47.33
28428;BME280;15662;49.128;8.520;2023-08-12T00:53:16;100563.38;;;25.11;47.11
28428;BME280;15662;49.128;8.520;2023-08-12T00:55:44;100559.69;;;25.12;47.68
28428;BME280;15662;49.128;8.520;2023-08-12T00:58:12;100564.25;;;25.11;47.56
28428;BME280;15662;49.128;8.520;2023-08-12T01:00:41;100564.25;;;25.11;47.70
28428;BME280;15662;49.128;8.520;2023-08-12T01:03:09;100553.66;;;25.08;47.37
28428;BME280;15662;49.128;8.520;2023-08-12T01:05:37;100556.00;;;25.13;47.32
28428;BME280;15662;49.128;8.520;2023-08-12T01:08:09;100549.56;;;25.14;47.52
28428;BME280;15662;49.128;8.520;2023-08-12T01:10:39;100565.56;;;25.17;47.54
28428;BME280;15662;49.128;8.520;2023-08-12T01:13:32;100558.44;;;25.16;47.72
28428;BME280;15662;49.128;8.520;2023-08-12T01:16:01;100558.56;;;25.14;47.91
28428;BME280;15662;49.128;8.520;2023-08-12T01:18:31;100558.97;;;25.10;48.12
28428;BME280;15662;49.128;8.520;2023-08-12T01:20:59;100557.97;;;25.11;48.31
28428;BME280;15662;49.128;8.520;2023-08-12T01:23:27;100558.97;;;25.10;48.24
28428;BME280;15662;49.128;8.520;2023-08-12T01:25:55;100567.22;;;25.08;47.91
28428;BME280;15662;49.128;8.520;2023-08-12T01:28:23;100560.06;;;25.07;47.98
28428;BME280;15662;49.128;8.520;2023-08-12T01:30:55;100558.97;;;25.10;48.03
28428;BME280;15662;49.128;8.520;2023-08-12T01:33:31;100565.38;;;25.09;48.17
28428;BME280;15662;49.128;8.520;2023-08-12T01:36:11;100563.66;;;25.08;48.09
28428;BME280;15662;49.128;8.520;2023-08-12T01:38:40;100567.09;;;25.10;48.02
28428;BME280;15662;49.128;8.520;2023-08-12T01:41:11;100562.66;;;25.09;48.32
28428;BME280;15662;49.128;8.520;2023-08-12T01:43:40;100571.53;;;25.11;48.26
28428;BME280;15662;49.128;8.520;2023-08-12T01:46:09;100570.66;;;25.10;48.45
28428;BME280;15662;49.128;8.520;2023-08-12T01:48:37;100566.38;;;25.08;48.86
28428;BME280;15662;49.128;8.520;2023-08-12T01:51:04;100579.03;;;25.07;48.58
28428;BME280;15662;49.128;8.520;2023-08-12T01:53:32;100564.72;;;25.05;48.65
28428;BME280;15662;49.128;8.520;2023-08-12T01:56:00;100565.88;;;25.03;48.89
28428;BME280;15662;49.128;8.520;2023-08-12T01:58:28;100570.66;;;24.99;49.14
28428;BME280;15662;49.128;8.520;2023-08-12T02:00:55;100573.38;;;24.99;49.04
28428;BME280;15662;49.128;8.520;2023-08-12T02:03:23;100572.38;;;25.00;48.75
28428;BME280;15662;49.128;8.520;2023-08-12T02:05:51;100564.50;;;24.97;48.56
28428;BME280;15662;49.128;8.520;2023-08-12T02:08:19;100578.44;;;25.04;48.94
28428;BME280;15662;49.128;8.520;2023-08-12T02:10:47;100576.94;;;25.00;48.83
28428;BME280;15662;49.128;8.520;2023-08-12T02:13:15;100590.84;;;25.06;48.78
28428;BME280;15662;49.128;8.520;2023-08-12T02:15:43;100584.56;;;25.06;48.61
28428;BME280;15662;49.128;8.520;2023-08-12T02:18:13;100569.16;;;25.06;48.49
28428;BME280;15662;49.128;8.520;2023-08-12T02:20:41;100580.41;;;25.13;48.64
28428;BME280;15662;49.128;8.520;2023-08-12T02:23:09;100574.22;;;25.11;48.62
28428;BME280;15662;49.128;8.520;2023-08-12T02:25:36;100581.00;;;25.16;48.59
28428;BME280;15662;49.128;8.520;2023-08-12T02:28:04;100582.75;;;25.17;48.72
28428;BME280;15662;49.128;8.520;2023-08-12T02:30:32;100570.91;;;25.18;48.39
28428;BME280;15662;49.128;8.520;2023-08-12T02:33:00;100572.22;;;25.24;48.42
28428;BME280;15662;49.128;8.520;2023-08-12T02:35:28;100578.25;;;25.28;48.34
28428;BME280;15662;49.128;8.520;2023-08-12T02:37:55;100571.56;;;25.32;48.21
28428;BME280;15662;49.128;8.520;2023-08-12T02:40:23;100566.88;;;25.34;48.63
28428;BME280;15662;49.128;8.520;2023-08-12T02:42:51;100567.75;;;25.34;48.51
28428;BME280;15662;49.128;8.520;2023-08-12T02:45:18;100566.88;;;25.34;48.77
28428;BME280;15662;49.128;8.520;2023-08-12T02:47:46;100568.59;;;25.35;48.92
28428;BME280;15662;49.128;8.520;2023-08-12T02:50:14;100573.78;;;25.38;48.76
28428;BME280;15662;49.128;8.520;2023-08-12T02:52:41;100577.97;;;25.42;48.96
28428;BME280;15662;49.128;8.520;2023-08-12T02:55:09;100572.41;;;25.43;48.78
28428;BME280;15662;49.128;8.520;2023-08-12T02:57:38;100578.94;;;25.41;48.98
28428;BME280;15662;49.128;8.520;2023-08-12T03:00:06;100568.81;;;25.43;48.81
28428;BME280;15662;49.128;8.520;2023-08-12T03:02:35;100554.03;;;25.36;48.90
28428;BME280;15662;49.128;8.520;2023-08-12T03:05:03;100575.25;;;25.42;48.81
28428;BME280;15662;49.128;8.520;2023-08-12T03:07:31;100567.59;;;25.36;49.07
28428;BME280;15662;49.128;8.520;2023-08-12T03:09:59;100546.03;;;25.34;49.03
28428;BME280;15662;49.128;8.520;2023-08-12T03:12:26;100541.63;;;25.33;48.98
28428;BME280;15662;49.128;8.520;2023-08-12T03:14:54;100539.75;;;25.34;48.94
28428;BME280;15662;49.128;8.520;2023-08-12T03:17:22;100550.84;;;25.31;48.84
28428;BME280;15662;49.128;8.520;2023-08-12T03:19:51;100542.00;;;25.29;48.72
28428;BME280;15662;49.128;8.520;2023-08-12T03:22:19;100548.03;;;25.32;48.70
28428;BME280;15662;49.128;8.520;2023-08-12T03:24:48;100532.47;;;25.34;49.05
28428;BME280;15662;49.128;8.520;2023-08-12T03:27:17;100540.47;;;25.36;48.92
28428;BME280;15662;49.128;8.520;2023-08-12T03:29:45;100528.03;;;25.33;49.24
28428;BME280;15662;49.128;8.520;2023-08-12T03:32:13;100521.16;;;25.29;48.97
28428;BME280;15662;49.128;8.520;2023-08-12T03:34:41;100519.91;;;25.33;49.03
28428;BME280;15662;49.128;8.520;2023-08-12T03:37:10;100523.63;;;25.32;49.21
28428;BME280;15662;49.128;8.520;2023-08-12T03:39:38;100534.47;;;25.32;49.20
28428;BME280;15662;49.128;8.520;2023-08-12T03:42:06;100531.75;;;25.32;49.44
28428;BME280;15662;49.128;8.520;2023-08-12T03:44:34;100538.63;;;25.36;49.26
28428;BME280;15662;49.128;8.520;2023-08-12T03:47:03;100537.25;;;25.42;49.06
28428;BME280;15662;49.128;8.520;2023-08-12T03:49:31;100527.13;;;25.44;49.09
28428;BME280;15662;49.128;8.520;2023-08-12T03:51:59;100531.41;;;25.46;49.06
28428;BME280;15662;49.128;8.520;2023-08-12T03:54:27;100517.84;;;25.46;49.15
28428;BME280;15662;49.128;8.520;2023-08-12T03:56:54;100531.88;;;25.52;49.08
28428;BME280;15662;49.128;8.520;2023-08-12T03:59:23;100522.88;;;25.51;49.18
28428;BME280;15662;49.128;8.520;2023-08-12T04:01:51;100508.44;;;25.51;49.25
28428;BME280;15662;49.128;8.520;2023-08-12T04:04:19;100520.06;;;25.53;49.08
28428;BME280;15662;49.128;8.520;2023-08-12T04:06:47;100510.91;;;25.54;49.34
28428;BME280;15662;49.128;8.520;2023-08-12T04:09:18;100515.34;;;25.55;49.28
28428;BME280;15662;49.128;8.520;2023-08-12T04:11:46;100521.78;;;25.54;49.32
28428;BME280;15662;49.128;8.520;2023-08-12T04:14:14;100542.94;;;25.60;49.40
28428;BME280;15662;49.128;8.520;2023-08-12T04:16:43;100525.94;;;25.58;49.50
28428;BME280;15662;49.128;8.520;2023-08-12T04:19:11;100541.94;;;25.61;49.47
28428;BME280;15662;49.128;8.520;2023-08-12T04:21:38;100544.81;;;25.59;49.40
28428;BME280;15662;49.128;8.520;2023-08-12T04:24:07;100544.81;;;25.59;49.30
28428;BME280;15662;49.128;8.520;2023-08-12T04:26:35;100547.66;;;25.58;49.51
28428;BME280;15662;49.128;8.520;2023-08-12T04:29:03;100549.63;;;25.56;49.56
28428;BME280;15662;49.128;8.520;2023-08-12T04:31:32;100543.34;;;25.55;49.62
28428;BME280;15662;49.128;8.520;2023-08-12T04:33:59;100559.63;;;25.55;49.38
28428;BME280;15662;49.128;8.520;2023-08-12T04:36:28;100546.91;;;25.56;49.39
28428;BME280;15662;49.128;8.520;2023-08-12T04:38:59;100554.94;;;25.57;49.46
28428;BME280;15662;49.128;8.520;2023-08-12T04:41:27;100540.38;;;25.58;49.19
28428;BME280;15662;49.128;8.520;2023-08-12T04:43:55;100546.53;;;25.60;49.41
28428;BME280;15662;49.128;8.520;2023-08-12T04:46:27;100547.28;;;25.62;49.30
28428;BME280;15662;49.128;8.520;2023-08-12T04:48:55;100541.44;;;25.67;49.60
28428;BME280;15662;49.128;8.520;2023-08-12T04:51:23;100532.31;;;25.68;49.30
28428;BME280;15662;49.128;8.520;2023-08-12T04:53:51;100537.84;;;25.66;49.92
28428;BME280;15662;49.128;8.520;2023-08-12T04:56:18;100546.97;;;25.65;49.64
28428;BME280;15662;49.128;8.520;2023-08-12T04:58:46;100537.13;;;25.64;49.52
28428;BME280;15662;49.128;8.520;2023-08-12T05:01:14;100541.44;;;25.67;49.47
28428;BME280;15662;49.128;8.520;2023-08-12T05:03:42;100535.00;;;25.68;49.67
28428;BME280;15662;49.128;8.520;2023-08-12T05:06:10;100534.00;;;25.69;49.60
28428;BME280;15662;49.128;8.520;2023-08-12T05:08:38;100525.88;;;25.69;49.88
28428;BME280;15662;49.128;8.520;2023-08-12T05:11:05;100540.91;;;25.73;49.85
28428;BME280;15662;49.128;8.520;2023-08-12T05:13:34;100531.91;;;25.72;49.88
28428;BME280;15662;49.128;8.520;2023-08-12T05:16:03;100527.19;;;25.74;49.50
28428;BME280;15662;49.128;8.520;2023-08-12T05:18:31;100517.31;;;25.73;49.72
28428;BME280;15662;49.128;8.520;2023-08-12T05:21:00;100513.09;;;25.81;49.85
28428;BME280;15662;49.128;8.520;2023-08-12T05:23:27;100523.00;;;25.82;49.70
28428;BME280;15662;49.128;8.520;2023-08-12T05:25:55;100526.44;;;25.84;49.61
28428;BME280;15662;49.128;8.520;2023-08-12T05:28:23;100528.13;;;25.85;49.66
28428;BME280;15662;49.128;8.520;2023-08-12T05:30:50;100530.59;;;25.88;49.82
28428;BME280;15662;49.128;8.520;2023-08-12T05:33:18;100537.75;;;25.89;49.86
28428;BME280;15662;49.128;8.520;2023-08-12T05:35:49;100521.44;;;25.89;49.88
28428;BME280;15662;49.128;8.520;2023-08-12T05:38:17;100518.72;;;25.89;49.67
28428;BME280;15662;49.128;8.520;2023-08-12T05:40:44;100516.72;;;25.91;49.64
28428;BME280;15662;49.128;8.520;2023-08-12T05:43:12;100525.47;;;25.94;49.82
28428;BME280;15662;49.128;8.520;2023-08-12T05:45:39;100528.94;;;25.96;49.97
28428;BME280;15662;49.128;8.520;2023-08-12T05:48:07;100525.22;;;25.97;49.85
28428;BME280;15662;49.128;8.520;2023-08-12T05:50:35;100538.41;;;26.02;49.90
28428;BME280;15662;49.128;8.520;2023-08-12T05:53:03;100540.72;;;26.07;50.12
28428;BME280;15662;49.128;8.520;2023-08-12T05:55:33;100544.88;;;26.11;49.97
28428;BME280;15662;49.128;8.520;2023-08-12T05:58:02;100548.31;;;26.13;50.35
28428;BME280;15662;49.128;8.520;2023-08-12T06:00:29;100551.03;;;26.13;50.21
28428;BME280;15662;49.128;8.520;2023-08-12T06:02:57;100551.88;;;26.13;50.05
28428;BME280;15662;49.128;8.520;2023-08-12T06:05:25;100544.44;;;26.15;50.27
28428;BME280;15662;49.128;8.520;2023-08-12T06:07:52;100543.78;;;26.23;50.35
28428;BME280;15662;49.128;8.520;2023-08-12T06:10:20;100540.81;;;26.26;50.33
28428;BME280;15662;49.128;8.520;2023-08-12T06:12:48;100540.09;;;26.34;50.23
28428;BME280;15662;49.128;8.520;2023-08-12T06:15:15;100535.97;;;26.39;50.47
28428;BME280;15662;49.128;8.520;2023-08-12T06:17:43;100540.31;;;26.42;50.43
28428;BME280;15662;49.128;8.520;2023-08-12T06:20:11;100548.59;;;26.40;50.60
28428;BME280;15662;49.128;8.520;2023-08-12T06:22:39;100550.19;;;26.43;50.40
28428;BME280;15662;49.128;8.520;2023-08-12T06:25:07;100543.91;;;26.42;50.74
28428;BME280;15662;49.128;8.520;2023-08-12T06:27:34;100539.63;;;26.49;50.68
28428;BME280;15662;49.128;8.520;2023-08-12T06:30:02;100536.09;;;26.59;50.58
28428;BME280;15662;49.128;8.520;2023-08-12T06:32:30;100543.16;;;26.71;50.83
28428;BME280;15662;49.128;8.520;2023-08-12T06:34:58;100536.72;;;26.82;50.85
28428;BME280;15662;49.128;8.520;2023-08-12T06:37:25;100544.16;;;26.89;51.01
28428;BME280;15662;49.128;8.520;2023-08-12T06:39:53;100541.88;;;26.94;50.94
28428;BME280;15662;49.128;8.520;2023-08-12T06:42:21;100529.19;;;27.05;50.80
28428;BME280;15662;49.128;8.520;2023-08-12T06:44:56;100533.78;;;27.14;50.98
28428;BME280;15662;49.128;8.520;2023-08-12T06:47:24;100544.97;;;27.20;50.78
28428;BME280;15662;49.128;8.520;2023-08-12T06:49:54;100547.13;;;27.26;50.84
28428;BME280;15662;49.128;8.520;2023-08-12T06:52:22;100545.69;;;27.32;50.95
28428;BME280;15662;49.128;8.520;2023-08-12T06:54:50;100534.78;;;27.32;50.73
28428;BME280;15662;49.128;8.520;2023-08-12T06:57:17;100539.66;;;27.38;50.85
28428;BME280;15662;49.128;8.520;2023-08-12T06:59:45;100537.94;;;27.37;50.78
28428;BME280;15662;49.128;8.520;2023-08-12T07:02:13;100544.81;;;27.41;50.98
28428;BME280;15662;49.128;8.520;2023-08-12T07:04:41;100537.25;;;27.45;50.94
28428;BME280;15662;49.128;8.520;2023-08-12T07:07:08;100550.84;;;27.55;51.07
28428;BME280;15662;49.128;8.520;2023-08-12T07:09:36;100554.13;;;27.58;50.87
28428;BME280;15662;49.128;8.520;2023-08-12T07:12:04;100544.06;;;27.68;50.85
28428;BME280;15662;49.128;8.520;2023-08-12T07:14:32;100546.81;;;27.78;50.97
28428;BME280;15662;49.128;8.520;2023-08-12T07:16:59;100553.41;;;27.85;51.07
28428;BME280;15662;49.128;8.520;2023-08-12T07:19:27;100541.50;;;27.86;51.14
28428;BME280;15662;49.128;8.520;2023-08-12T07:21:55;100552.38;;;27.96;51.19
28428;BME280;15662;49.128;8.520;2023-08-12T07:24:23;100552.78;;;28.01;51.19
28428;BME280;15662;49.128;8.520;2023-08-12T07:26:50;100550.63;;;28.05;51.13
28428;BME280;15662;49.128;8.520;2023-08-12T07:29:18;100537.59;;;28.08;50.82
28428;BME280;15662;49.128;8.520;2023-08-12T07:31:45;100536.56;;;28.09;50.97
28428;BME280;15662;49.128;8.520;2023-08-12T07:34:13;100527.38;;;28.10;51.04
28428;BME280;15662;49.128;8.520;2023-08-12T07:36:41;100532.69;;;28.12;50.96
28428;BME280;15662;49.128;8.520;2023-08-12T07:39:09;100543.13;;;28.16;51.11
28428;BME280;15662;49.128;8.520;2023-08-12T07:41:36;100550.00;;;28.20;51.15
28428;BME280;15662;49.128;8.520;2023-08-12T07:44:05;100539.34;;;28.27;50.93
28428;BME280;15662;49.128;8.520;2023-08-12T07:46:32;100532.75;;;28.39;51.13
28428;BME280;15662;49.128;8.520;2023-08-12T07:49:00;100536.44;;;28.48;51.00
28428;BME280;15662;49.128;8.520;2023-08-12T07:51:28;100536.69;;;28.54;51.13
28428;BME280;15662;49.128;8.520;2023-08-12T07:53:55;100533.22;;;28.62;50.97
28428;BME280;15662;49.128;8.520;2023-08-12T07:56:23;100530.34;;;28.64;50.83
28428;BME280;15662;49.128;8.520;2023-08-12T07:58:50;100534.31;;;28.69;51.12
28428;BME280;15662;49.128;8.520;2023-08-12T08:01:18;100527.22;;;28.76;50.96
28428;BME280;15662;49.128;8.520;2023-08-12T08:03:46;100531.53;;;28.79;50.82
28428;BME280;15662;49.128;8.520;2023-08-12T08:06:13;100523.56;;;28.86;50.89
28428;BME280;15662;49.128;8.520;2023-08-12T08:08:41;100527.56;;;28.91;51.23
28428;BME280;15662;49.128;8.520;2023-08-12T08:11:09;100534.03;;;28.90;50.75
28428;BME280;15662;49.128;8.520;2023-08-12T08:13:36;100527.41;;;28.93;51.05
28428;BME280;15662;49.128;8.520;2023-08-12T08:16:04;100530.41;;;28.99;50.73
28428;BME280;15662;49.128;8.520;2023-08-12T08:18:31;100534.56;;;29.03;51.05
28428;BME280;15662;49.128;8.520;2023-08-12T08:20:59;100536.09;;;29.06;50.56
28428;BME280;15662;49.128;8.520;2023-08-12T08:23:32;100527.22;;;29.04;50.45
28428;BME280;15662;49.128;8.520;2023-08-12T08:26:00;100516.69;;;29.09;50.63
28428;BME280;15662;49.128;8.520;2023-08-12T08:28:27;100511.94;;;29.11;50.44
28428;BME280;15662;49.128;8.520;2023-08-12T08:30:55;100516.06;;;29.15;50.48
28428;BME280;15662;49.128;8.520;2023-08-12T08:33:23;100520.59;;;29.24;50.70
28428;BME280;15662;49.128;8.520;2023-08-12T08:35:50;100527.69;;;29.35;50.88
28428;BME280;15662;49.128;8.520;2023-08-12T08:38:18;100518.72;;;29.43;50.59
28428;BME280;15662;49.128;8.520;2023-08-12T08:40:46;100524.25;;;29.51;50.49
28428;BME280;15662;49.128;8.520;2023-08-12T08:43:15;100538.84;;;29.60;50.69
28428;BME280;15662;49.128;8.520;2023-08-12T08:45:43;100540.63;;;29.69;50.50
28428;BME280;15662;49.128;8.520;2023-08-12T08:48:11;100533.19;;;29.79;50.71
28428;BME280;15662;49.128;8.520;2023-08-12T08:50:39;100532.59;;;29.93;50.76
28428;BME280;15662;49.128;8.520;2023-08-12T08:53:07;100532.50;;;30.03;50.65
28428;BME280;15662;49.128;8.520;2023-08-12T08:55:35;100528.53;;;30.15;50.85
28428;BME280;15662;49.128;8.520;2023-08-12T08:58:03;100513.84;;;30.24;50.73
28428;BME280;15662;49.128;8.520;2023-08-12T09:00:32;100526.41;;;30.35;50.57
28428;BME280;15662;49.128;8.520;2023-08-12T09:03:00;100521.97;;;30.42;50.47
28428;BME280;15662;49.128;8.520;2023-08-12T09:05:28;100526.09;;;30.46;50.10
28428;BME280;15662;49.128;8.520;2023-08-12T09:07:56;100522.03;;;30.50;50.39
28428;BME280;15662;49.128;8.520;2023-08-12T09:10:25;100521.16;;;30.50;50.03
28428;BME280;15662;49.128;8.520;2023-08-12T09:12:56;100517.75;;;30.56;49.63
28428;BME280;15662;49.128;8.520;2023-08-12T09:15:24;100513.69;;;30.60;50.02
28428;BME280;15662;49.128;8.520;2023-08-12T09:17:52;100503.09;;;30.65;49.83
28428;BME280;15662;49.128;8.520;2023-08-12T09:20:20;100500.38;;;30.73;49.80
28428;BME280;15662;49.128;8.520;2023-08-12T09:22:57;100516.00;;;30.81;49.72
28428;BME280;15662;49.128;8.520;2023-08-12T09:25:29;100517.38;;;30.85;49.27
28428;BME280;15662;49.128;8.520;2023-08-12T09:28:00;100518.75;;;30.89;49.47
28428;BME280;15662;49.128;8.520;2023-08-12T09:30:29;100505.75;;;30.91;49.32
28428;BME280;15662;49.128;8.520;2023-08-12T09:33:02;100503.38;;;30.96;49.50
28428;BME280;15662;49.128;8.520;2023-08-12T09:35:39;100505.59;;;31.01;49.11
28428;BME280;15662;49.128;8.520;2023-08-12T09:38:11;100493.63;;;31.02;48.92
28428;BME280;15662;49.128;8.520;2023-08-12T09:40:40;100499.09;;;31.10;49.20
28428;BME280;15662;49.128;8.520;2023-08-12T09:43:08;100497.41;;;31.17;48.96
28428;BME280;15662;49.128;8.520;2023-08-12T09:45:37;100505.47;;;31.27;49.14
28428;BME280;15662;49.128;8.520;2023-08-12T09:48:05;100505.50;;;31.35;49.25
28428;BME280;15662;49.128;8.520;2023-08-12T09:50:35;100520.22;;;31.50;49.16
28428;BME280;15662;49.128;8.520;2023-08-12T09:53:06;100521.75;;;31.61;48.89
28428;BME280;15662;49.128;8.520;2023-08-12T09:55:34;100515.56;;;31.67;48.92
28428;BME280;15662;49.128;8.520;2023-08-12T09:58:03;100518.31;;;31.75;48.60
28428;BME280;15662;49.128;8.520;2023-08-12T10:00:33;100512.66;;;31.85;48.72
28428;BME280;15662;49.128;8.520;2023-08-12T10:03:02;100511.28;;;31.97;48.56
28428;BME280;15662;49.128;8.520;2023-08-12T10:05:34;100496.50;;;32.06;48.30
28428;BME280;15662;49.128;8.520;2023-08-12T10:08:02;100494.28;;;32.10;48.03
28428;BME280;15662;49.128;8.520;2023-08-12T10:10:33;100503.69;;;32.16;47.28
28428;BME280;15662;49.128;8.520;2023-08-12T10:13:02;100493.34;;;32.26;48.00
28428;BME280;15662;49.128;8.520;2023-08-12T10:15:30;100491.28;;;32.36;48.24
28428;BME280;15662;49.128;8.520;2023-08-12T10:17:58;100502.38;;;32.51;47.71
28428;BME280;15662;49.128;8.520;2023-08-12T10:20:26;100498.56;;;32.60;47.62
28428;BME280;15662;49.128;8.520;2023-08-12T10:22:54;100506.25;;;32.65;47.23
28428;BME280;15662;49.128;8.520;2023-08-12T10:25:22;100509.50;;;32.68;47.47
28428;BME280;15662;49.128;8.520;2023-08-12T10:27:54;100498.81;;;32.73;47.03
28428;BME280;15662;49.128;8.520;2023-08-12T10:30:22;100500.34;;;32.76;47.12
28428;BME280;15662;49.128;8.520;2023-08-12T10:32:50;100498.94;;;32.80;46.37
28428;BME280;15662;49.128;8.520;2023-08-12T10:35:17;100486.28;;;32.79;46.52
28428;BME280;15662;49.128;8.520;2023-08-12T10:37:48;100478.72;;;32.81;46.35
28428;BME280;15662;49.128;8.520;2023-08-12T10:40:45;100488.28;;;32.85;46.49
28428;BME280;15662;49.128;8.520;2023-08-12T10:43:18;100482.00;;;32.76;45.48
28428;BME280;15662;49.128;8.520;2023-08-12T10:45:54;100501.00;;;32.86;45.13
28428;BME280;15662;49.128;8.520;2023-08-12T10:48:30;100516.78;;;32.92;45.78
28428;BME280;15662;49.128;8.520;2023-08-12T10:51:12;100503.75;;;32.86;45.30
28428;BME280;15662;49.128;8.520;2023-08-12T10:54:14;100501.03;;;32.78;45.32
28428;BME280;15662;49.128;8.520;2023-08-12T10:57:05;100511.19;;;32.69;45.03
28428;BME280;15662;49.128;8.520;2023-08-12T10:59:52;100540.03;;;32.65;44.77
28428;BME280;15662;49.128;8.520;2023-08-12T11:02:34;100542.31;;;32.53;45.21
28428;BME280;15662;49.128;8.520;2023-08-12T11:05:27;100531.25;;;32.39;44.75
28428;BME280;15662;49.128;8.520;2023-08-12T11:08:26;100535.66;;;32.31;45.02
28428;BME280;15662;49.128;8.520;2023-08-12T11:11:19;100531.28;;;32.22;44.82
28428;BME280;15662;49.128;8.520;2023-08-12T11:13:58;100504.72;;;32.06;44.77
28428;BME280;15662;49.128;8.520;2023-08-12T11:16:37;100498.75;;;32.03;45.22
28428;BME280;15662;49.128;8.520;2023-08-12T11:19:09;100498.25;;;31.91;45.50
28428;BME280;15662;49.128;8.520;2023-08-12T11:21:57;100468.66;;;31.62;45.75
28428;BME280;15662;49.128;8.520;2023-08-12T11:24:36;100478.78;;;31.53;46.00
28428;BME280;15662;49.128;8.520;2023-08-12T11:27:10;100488.03;;;31.36;46.25
28428;BME280;15662;49.128;8.520;2023-08-12T11:29:42;100513.81;;;31.17;46.42
28428;BME280;15662;49.128;8.520;2023-08-12T11:32:11;100513.81;;;31.01;46.17
28428;BME280;15662;49.128;8.520;2023-08-12T11:34:44;100514.44;;;30.78;46.43
28428;BME280;15662;49.128;8.520;2023-08-12T11:37:15;100522.06;;;30.67;46.80
28428;BME280;15662;49.128;8.520;2023-08-12T11:39:52;100526.50;;;30.60;46.91
28428;BME280;15662;49.128;8.520;2023-08-12T11:42:26;100529.38;;;30.58;47.34
28428;BME280;15662;49.128;8.520;2023-08-12T11:44:58;100516.72;;;30.57;47.56
28428;BME280;15662;49.128;8.520;2023-08-12T11:47:35;100524.28;;;30.63;47.97
28428;BME280;15662;49.128;8.520;2023-08-12T11:50:12;100518.47;;;30.66;48.19
28428;BME280;15662;49.128;8.520;2023-08-12T11:52:48;100521.44;;;30.73;48.29
28428;BME280;15662;49.128;8.520;2023-08-12T11:55:24;100508.06;;;30.70;48.40
28428;BME280;15662;49.128;8.520;2023-08-12T12:00:56;100502.66;;;30.86;47.99
28428;BME280;15662;49.128;8.520;2023-08-12T12:03:35;100509.69;;;30.97;48.04
28428;BME280;15662;49.128;8.520;2023-08-12T12:06:36;100507.50;;;31.08;48.13
28428;BME280;15662;49.128;8.520;2023-08-12T12:09:19;100493.28;;;31.05;48.33
28428;BME280;15662;49.128;8.520;2023-08-12T12:12:03;100496.00;;;31.13;48.38
28428;BME280;15662;49.128;8.520;2023-08-12T12:15:07;100496.38;;;31.10;48.19
28428;BME280;15662;49.128;8.520;2023-08-12T12:17:57;100504.25;;;31.21;47.98
28428;BME280;15662;49.128;8.520;2023-08-12T12:21:10;100496.22;;;31.20;48.14
28428;BME280;15662;49.128;8.520;2023-08-12T12:28:24;100529.13;;;31.44;48.16
28428;BME280;15662;49.128;8.520;2023-08-12T12:30:52;100525.19;;;31.55;48.08
28428;BME280;15662;49.128;8.520;2023-08-12T12:33:20;100510.09;;;31.67;47.82
28428;BME280;15662;49.128;8.520;2023-08-12T12:35:48;100517.47;;;31.83;47.72
28428;BME280;15662;49.128;8.520;2023-08-12T12:38:26;100521.03;;;32.00;47.88
28428;BME280;15662;49.128;8.520;2023-08-12T12:40:54;100515.16;;;32.11;47.97
28428;BME280;15662;49.128;8.520;2023-08-12T12:43:22;100518.56;;;32.21;47.59
28428;BME280;15662;49.128;8.520;2023-08-12T12:45:49;100499.53;;;32.28;47.26
28428;BME280;15662;49.128;8.520;2023-08-12T12:48:17;100502.75;;;32.31;47.03
28428;BME280;15662;49.128;8.520;2023-08-12T12:50:45;100485.44;;;32.31;47.23
28428;BME280;15662;49.128;8.520;2023-08-12T12:53:13;100492.28;;;32.35;46.76
28428;BME280;15662;49.128;8.520;2023-08-12T12:55:41;100506.34;;;32.40;46.89
28428;BME280;15662;49.128;8.520;2023-08-12T12:58:09;100511.00;;;32.40;46.54
28428;BME280;15662;49.128;8.520;2023-08-12T13:00:39;100496.63;;;32.38;46.59
28428;BME280;15662;49.128;8.520;2023-08-12T13:03:07;100501.72;;;32.41;46.51
28428;BME280;15662;49.128;8.520;2023-08-12T13:05:35;100496.25;;;32.41;46.11
28428;BME280;15662;49.128;8.520;2023-08-12T13:08:03;100501.91;;;32.39;46.12
28428;BME280;15662;49.128;8.520;2023-08-12T13:10:31;100509.97;;;32.41;46.26
28428;BME280;15662;49.128;8.520;2023-08-12T13:12:59;100511.31;;;32.45;46.38